Latest Weather Observations for Launceston

IDT60801

Issued at 10:32 am EDT Friday 9 December 2016 (issued every 30 minutes, with the page automatically refreshed every 10 minutes)

About weather observations | Map of weather stations | Latest weather observations for TAS | Other Formats
Station Details ID: 091237 Name: LAUNCESTON (TI TREE BEND) Lat: -41.42 Lon: 147.12 Height: 5.0 m
Data from the previous 72 hours. | See also: Recent months at Launceston
Date/Time
EDT
Temp
°C
App
Temp
°C
Dew
Point
°C
Rel
Hum
%
Delta-T
°C
Wind Press
QNH
hPa
Press
MSL
hPa
Rain since
9am
mm
Dir  Spd
km/h
Gust
km/h
Spd
kts
Gust
kts
09/10:30am 14.4 10.8 0.6 39 5.9 SSW 9 19 5 10 - - 0.0
09/10:00am 14.7 9.2 1.9 42 5.6 SSE 20 32 11 17 - - 0.0
09/09:30am 13.2 10.5 0.6 42 5.3 WNW 4 15 2 8 - - 0.0
09/09:00am 12.6 8.2 0.4 43 5.1 S 13 20 7 11 - - 10.2
09/08:30am 11.9 7.5 0.4 45 4.8 SSW 13 22 7 12 - - 10.2
09/08:00am 12.0 8.5 1.1 47 4.6 SW 9 20 5 11 - - 10.2
09/07:30am 12.0 9.3 0.5 45 4.8 NNE 4 9 2 5 - - 10.2
09/07:00am 11.4 8.5 1.4 50 4.2 W 6 11 3 6 - - 10.2
09/06:30am 10.8 6.8 0.5 49 4.2 SW 11 19 6 10 - - 10.2
09/06:00am 9.0 5.6 2.1 62 2.9 WSW 9 13 5 7 - - 10.2
09/05:30am 9.3 5.8 1.5 58 3.2 W 9 17 5 9 - - 10.2
09/05:00am 10.2 6.0 1.6 55 3.6 SW 13 19 7 10 - - 10.2
09/04:30am 10.4 6.4 2.7 59 3.3 WSW 13 26 7 14 - - 10.2
09/04:00am 10.1 7.7 4.3 67 2.6 NNW 6 11 3 6 - - 10.2
09/03:30am 10.7 8.1 4.4 65 2.8 NNW 7 11 4 6 - - 10.2
09/03:00am 11.4 8.6 3.2 57 3.6 SW 7 17 4 9 - - 10.2
09/02:30am 12.3 7.6 3.0 53 4.1 SW 17 28 9 15 - - 10.2
09/02:00am 12.0 9.5 4.5 60 3.4 WNW 7 15 4 8 - - 10.2
09/01:30am 12.0 9.0 5.9 66 2.9 W 11 19 6 10 - - 10.2
09/01:00am 12.4 10.3 6.5 67 2.8 WNW 7 11 4 6 - - 10.2
09/12:30am 12.6 10.4 6.4 66 2.9 WNW 7 11 4 6 - - 10.2
09/12:00am 12.7 10.3 7.0 68 2.7 NW 9 15 5 8 - - 10.2
 
Date/Time
EDT
Temp
°C
App
Temp
°C
Dew
Point
°C
Rel
Hum
%
Delta-T
°C
Wind Press
QNH
hPa
Press
MSL
hPa
Rain since
9am
mm
Dir  Spd
km/h
Gust
km/h
Spd
kts
Gust
kts
08/11:30pm 12.9 10.3 7.6 70 2.6 NW 11 19 6 10 - - 10.2
08/11:00pm 13.1 9.5 8.2 72 2.4 NNW 17 24 9 13 - - 10.2
08/10:30pm 13.7 8.9 9.0 73 2.4 NW 24 39 13 21 - - 10.2
08/10:00pm 13.9 8.8 9.3 74 2.3 NNW 26 37 14 20 - - 10.2
08/09:30pm 14.0 8.2 9.6 75 2.3 NNW 30 44 16 24 - - 10.2
08/09:25pm 14.0 8.6 9.6 75 2.3 NNW 28 46 15 25 - - 10.2
08/09:00pm 14.2 9.4 10.2 77 2.1 NNW 26 43 14 23 - - 10.2
08/08:30pm 14.1 8.5 10.3 78 2.0 NNW 30 52 16 28 - - 10.2
08/08:00pm 14.2 8.3 10.6 79 1.9 NNW 32 44 17 24 - - 10.2
08/07:32pm 14.5 8.0 10.5 77 2.1 NNW 35 56 19 30 - - 10.2
08/07:30pm 14.5 8.0 10.5 77 2.1 NNW 35 52 19 28 - - 10.2
08/07:08pm 14.8 8.9 11.0 78 2.0 NNW 33 54 18 29 - - 10.2
08/07:00pm 14.8 8.4 10.6 76 2.2 NNW 35 54 19 29 - - 10.2
08/06:34pm 15.3 9.1 11.3 77 2.1 NNW 35 56 19 30 - - 10.2
08/06:30pm 15.5 9.2 11.1 75 2.3 NNW 35 50 19 27 - - 10.2
08/06:00pm 16.3 10.6 11.9 75 2.4 NNW 33 54 18 29 - - 10.2
08/05:30pm 14.9 8.5 12.0 83 1.6 NNW 37 59 20 32 - - 10.2
08/05:03pm 15.0 8.6 12.0 82 1.6 NNW 37 59 20 32 - - 10.0
08/05:00pm 15.1 9.0 11.7 80 1.8 NNW 35 50 19 27 - - 10.0
08/04:30pm 15.2 7.8 11.2 77 2.1 NNW 41 65 22 35 - - 10.0
08/04:09pm 15.2 8.7 11.8 80 1.8 NNW 37 61 20 33 - - 10.0
08/04:00pm 14.7 9.0 11.7 82 1.6 NNW 33 50 18 27 - - 10.0
08/03:39pm 15.9 9.2 11.1 73 2.6 NNW 37 57 20 31 - - 10.0
08/03:30pm 15.4 9.1 11.2 76 2.2 NNW 35 48 19 26 - - 10.0
08/03:00pm 16.5 10.2 11.2 71 2.9 NNW 35 57 19 31 - - 10.0
08/02:38pm 16.4 10.5 11.3 72 2.7 NNW 33 52 18 28 - - 10.0
08/02:30pm 16.4 10.7 11.8 74 2.5 NNW 33 48 18 26 - - 10.0
08/02:06pm 16.2 10.9 13.1 82 1.7 NNW 33 54 18 29 - - 10.0
08/02:00pm 16.3 11.0 13.2 82 1.7 NNW 33 52 18 28 - - 10.0
08/01:30pm 15.6 10.8 14.0 90 0.9 NNW 32 50 17 27 - - 10.0
08/01:00pm 15.8 11.5 14.5 92 0.7 NNW 30 50 16 27 - - 9.8
08/12:30pm 16.3 10.3 14.5 89 1.0 N 39 57 21 31 - - 9.2
08/12:00pm 16.2 11.5 14.4 89 1.0 N 32 61 17 33 - - 8.8
08/11:30am 16.1 11.8 14.5 90 0.9 N 30 48 16 26 - - 8.0
08/11:00am 16.4 11.2 14.4 88 1.1 N 35 61 19 33 - - 5.0
08/10:30am 16.6 10.5 14.2 86 1.4 N 39 65 21 35 - - 3.0
08/10:00am 16.7 9.9 14.2 85 1.4 N 43 67 23 36 - - 2.2
08/09:30am 16.1 11.2 13.8 86 1.3 N 32 59 17 32 - - 1.4
08/09:26am 16.3 11.5 14.0 86 1.3 N 32 52 17 28 - - 1.0
08/09:00am 16.3 11.9 14.1 87 1.2 NNE 30 46 16 25 - - 7.4
08/08:48am 16.4 13.3 14.4 88 1.1 NNE 24 48 13 26 - - 6.2
08/08:30am 15.0 14.2 14.0 94 0.6 NW 11 19 6 10 - - 4.8
08/08:00am 13.4 13.4 12.3 93 0.6 W 4 7 2 4 - - 3.8
08/07:30am 12.7 12.1 11.6 93 0.6 SSW 6 7 3 4 - - 3.0
08/07:00am 12.6 12.2 11.2 91 0.7 S 4 7 2 4 - - 1.0
08/06:30am 12.6 12.0 10.5 87 1.1 E 4 7 2 4 - - 0.0
08/06:00am 13.2 12.3 10.6 84 1.4 N 6 7 3 4 - - 0.0
08/05:30am 12.4 11.4 10.3 87 1.1 S 6 9 3 5 - - 0.0
08/05:00am 11.8 11.1 10.2 90 0.8 SSE 4 7 2 4 - - 0.0
08/04:30am 11.7 10.4 10.1 90 0.8 ENE 7 11 4 6 - - 0.0
08/04:00am 11.9 11.2 10.0 88 1.0 ESE 4 7 2 4 - - 0.0
08/03:30am 12.7 11.5 10.2 85 1.3 WNW 7 9 4 5 - - 0.0
08/03:00am 12.9 11.7 10.3 84 1.3 NW 7 13 4 7 - - 0.0
08/02:30am 13.1 11.2 10.6 85 1.3 NW 11 17 6 9 - - 0.0
08/02:00am 13.1 11.3 11.0 87 1.1 NW 11 20 6 11 - - 0.0
08/01:30am 12.7 11.0 11.3 91 0.7 WNW 11 17 6 9 - - 0.0
08/01:00am 11.9 10.4 10.6 92 0.7 NNW 9 13 5 7 - - 0.0
08/12:30am 12.2 11.1 10.8 91 0.7 NNW 7 9 4 5 - - 0.0
08/12:00am 12.4 11.5 10.8 90 0.8 WNW 6 7 3 4 - - 0.0
 
Date/Time
EDT
Temp
°C
App
Temp
°C
Dew
Point
°C
Rel
Hum
%
Delta-T
°C
Wind Press
QNH
hPa
Press
MSL
hPa
Rain since
9am
mm
Dir  Spd
km/h
Gust
km/h
Spd
kts
Gust
kts
07/11:30pm 12.5 11.9 10.4 87 1.1 NW 4 6 2 3 - - 0.0
07/11:00pm 13.0 12.1 10.7 86 1.2 NW 6 7 3 4 - - 0.0
07/10:30pm 13.1 12.2 10.8 86 1.2 NW 6 6 3 3 - - 0.0
07/10:00pm 13.9 13.2 11.4 85 1.3 NNW 6 7 3 4 - - 0.0
07/09:30pm 14.0 13.1 11.3 84 1.4 NNW 7 9 4 5 - - 0.0
07/09:00pm 14.7 13.8 11.5 81 1.7 NNW 7 11 4 6 - - 0.0
07/08:30pm 15.5 13.9 11.7 78 2.1 NNW 11 17 6 9 - - 0.0
07/08:00pm 16.1 14.2 11.9 76 2.3 NNW 13 19 7 10 - - 0.0
07/07:30pm 16.6 13.5 11.7 73 2.7 NNW 19 26 10 14 - - 0.0
07/07:00pm 16.7 13.6 11.6 72 2.8 NNW 19 26 10 14 - - 0.0
07/06:30pm 17.2 14.0 11.2 68 3.2 NNW 19 28 10 15 - - 0.0
07/06:00pm 17.2 13.9 11.5 69 3.1 NNW 20 28 11 15 - - 0.0
07/05:30pm 17.1 13.6 12.2 73 2.7 NNW 22 32 12 17 - - 0.0
07/05:00pm 17.1 12.9 12.4 74 2.6 NNW 26 35 14 19 - - 0.0
07/04:30pm 17.1 13.2 12.2 73 2.7 NNW 24 37 13 20 - - 0.0
07/04:00pm 17.3 13.3 11.8 70 3.0 NNW 24 33 13 18 - - 0.0
07/03:30pm 17.3 13.4 12.0 71 2.9 NNW 24 35 13 19 - - 0.0
07/03:00pm 17.2 13.0 12.3 73 2.7 NNW 26 37 14 20 - - 0.0
07/02:30pm 17.5 13.4 12.6 73 2.7 NNW 26 37 14 20 - - 0.0
07/02:00pm 17.5 13.7 12.4 72 2.8 NNW 24 39 13 21 - - 0.0
07/01:30pm 17.6 13.5 11.4 67 3.4 NNW 24 37 13 20 - - 0.0
07/01:00pm 17.3 12.7 11.1 67 3.3 NNW 26 39 14 21 - - 0.0
07/12:30pm 18.4 15.1 11.5 64 3.8 NNW 20 32 11 17 - - 0.0
07/12:00pm 17.4 13.9 10.3 63 3.8 NNW 19 28 10 15 - - 0.0
07/11:30am 18.2 15.2 10.6 61 4.1 NNW 17 28 9 15 - - 0.0
07/11:00am 18.4 15.4 10.8 61 4.1 NNW 17 30 9 16 - - 0.0
07/10:30am 17.7 14.5 9.8 60 4.2 NNW 17 26 9 14 - - 0.0
07/10:00am 17.1 13.7 9.3 60 4.1 N 17 24 9 13 - - 0.0
07/09:30am 16.6 13.7 9.5 63 3.7 NNW 15 24 8 13 - - 0.0
07/09:00am 15.7 13.1 9.4 66 3.3 NNW 13 19 7 10 - - 0.0
07/08:30am 14.7 12.5 9.3 70 2.8 N 11 15 6 8 - - 0.0
07/08:00am 13.8 12.0 9.3 74 2.3 NNW 9 15 5 8 - - 0.0
07/07:30am 13.1 10.9 9.4 78 1.9 NNW 11 15 6 8 - - 0.0
07/07:00am 12.3 10.9 9.7 84 1.3 NW 7 11 4 6 - - 0.0
07/06:30am 11.5 11.0 9.4 87 1.1 W 2 4 1 2 - - 0.0
07/06:00am 10.5 8.8 8.4 87 1.0 NNW 7 9 4 5 - - 0.0
07/05:30am 10.4 8.7 8.2 86 1.1 NW 7 11 4 6 - - 0.0
07/05:00am 10.4 9.1 7.6 83 1.3 NW 4 6 2 3 - - 0.0
07/04:30am 10.5 8.2 7.6 82 1.4 NW 9 13 5 7 - - 0.0
07/04:00am 10.4 9.1 7.5 82 1.4 WNW 4 6 2 3 - - 0.0
07/03:30am 10.5 9.1 7.2 80 1.6 WNW 4 4 2 2 - - 0.0
07/03:00am 11.1 9.3 7.0 76 2.0 WNW 6 7 3 4 - - 0.0
07/02:30am 11.7 9.5 6.2 69 2.6 NW 7 9 4 5 - - 0.0
07/02:00am 11.9 9.7 6.2 68 2.7 NNW 7 9 4 5 - - 0.0
07/01:30am 11.9 9.6 5.8 66 2.8 NNW 7 11 4 6 - - 0.0
07/01:00am 12.4 9.8 6.2 66 2.9 NW 9 13 5 7 - - 0.0
07/12:30am 12.5 9.6 6.3 66 2.9 NW 11 13 6 7 - - 0.0
07/12:00am 13.1 10.5 6.2 63 3.3 WNW 9 13 5 7 - - 0.0
 
Date/Time
EDT
Temp
°C
App
Temp
°C
Dew
Point
°C
Rel
Hum
%
Delta-T
°C
Wind Press
QNH
hPa
Press
MSL
hPa
Rain since
9am
mm
Dir  Spd
km/h
Gust
km/h
Spd
kts
Gust
kts
06/11:30pm 13.2 10.6 6.3 63 3.3 NW 9 13 5 7 - - 0.0
06/11:00pm 14.1 11.5 6.2 59 3.8 NNW 9 13 5 7 - - 0.0
06/10:30pm 14.7 12.4 5.0 52 4.5 WNW 6 9 3 5 - - 0.0
06/10:00pm 15.0 12.5 5.0 51 4.7 NNW 7 13 4 7 - - 0.0
06/09:30pm 15.7 13.3 4.4 47 5.3 NNW 6 11 3 6 - - 0.0
06/09:00pm 16.6 13.1 3.3 41 6.1 W 11 20 6 11 - - 0.0
06/08:30pm 17.2 13.7 3.5 40 6.3 W 11 20 6 11 - - 0.0
06/08:00pm 18.4 13.2 2.7 35 7.2 WSW 19 30 10 16 - - 0.0
06/07:30pm 19.8 14.7 3.1 33 7.8 WSW 19 28 10 15 - - 0.0
06/07:00pm 20.9 16.7 3.6 32 8.3 W 15 24 8 13 - - 0.0
06/06:30pm 20.9 16.4 4.0 33 8.1 WNW 17 24 9 13 - - 0.0
06/06:00pm 21.5 17.7 4.1 32 8.4 WNW 13 19 7 10 - - 0.0
06/05:30pm 20.9 17.1 4.0 33 8.1 W 13 20 7 11 - - 0.0
06/05:00pm 22.5 18.6 5.4 33 8.5 W 15 24 8 13 - - 0.0
06/04:30pm 21.6 18.1 5.5 35 8.0 NNW 13 24 7 13 - - 0.0
06/04:00pm 20.9 17.7 8.5 45 6.5 N 15 22 8 12 - - 0.0
06/03:30pm 21.2 18.2 9.4 47 6.3 NNW 15 22 8 12 - - 0.0
06/03:00pm 20.4 16.6 7.7 44 6.5 N 17 24 9 13 - - 0.0
06/02:30pm 20.0 17.4 9.3 50 5.7 NNW 13 22 7 12 - - 0.0
06/02:00pm 20.1 17.4 9.1 49 5.8 NNW 13 22 7 12 - - 0.0
06/01:30pm 19.2 16.4 8.5 50 5.6 NNW 13 24 7 13 - - 0.0
06/01:00pm 19.7 17.2 8.4 48 5.9 N 11 17 6 9 - - 0.0
06/12:30pm 18.7 16.5 9.2 54 5.0 NNW 11 20 6 11 - - 0.0
06/12:00pm 18.6 16.5 5.8 43 6.3 N 6 15 3 8 - - 0.0
06/11:30am 18.0 15.3 9.1 56 4.6 NW 13 24 7 13 - - 0.0
06/11:00am 17.3 15.9 9.5 60 4.1 NW 7 17 4 9 - - 0.0

Other Formats:

Comma delimited format used in spreadsheet applications
http://www.bom.gov.au/fwo/IDT60801/IDT60801.94969.axf

JavaScript Object Notation format (JSON) in row-major order
http://www.bom.gov.au/fwo/IDT60801/IDT60801.94969.json